Time;durP1;ratioP1;P1;durP2;ratioP2;P2;SDS_P1;SDS_P2;PMS_P1;PMS_P2;Temp;Humidity;BMP_temperature;BMP_pressure;BME280_temperature;BME280_humidity;BME280_pressure;Samples;Min_cycle;Max_cycle;Signal;HPM_P1;HPM_P2
2023/09/06 00:00:21;;;;;;;;;;;22.60;46.20;;;;;;1511926;78;1445;-54
2023/09/06 00:02:16;;;;;;;;;;;22.60;46.30;;;;;;1506069;78;1041;-55
2023/09/06 00:04:18;;;;;;;;;;;22.60;46.30;;;;;;1506970;78;774;-54
2023/09/06 00:06:20;;;;;;;;;;;22.70;46.30;;;;;;1505689;78;729;-54
2023/09/06 00:08:22;;;;;;;;;;;22.70;46.30;;;;;;1513425;78;1934;-54
2023/09/06 00:10:23;;;;;;;;;;;22.60;46.10;;;;;;1500118;77;1199;-54
2023/09/06 00:12:25;;;;;;;;;;;22.60;46.10;;;;;;1516435;78;763;-54
2023/09/06 00:14:29;;;;;;;;;;;22.60;46.00;;;;;;1516273;78;1428;-52
2023/09/06 00:16:31;;;;;;;;;;;22.60;46.00;;;;;;1518544;77;679;-54
2023/09/06 00:18:33;;;;;;;;;;;22.60;46.00;;;;;;1509541;78;692;-54
2023/09/06 00:20:35;;;;;;;;;;;22.60;46.00;;;;;;1515792;78;1170;-54
2023/09/06 00:22:38;;;;;;;;;;;22.60;46.00;;;;;;1506840;78;788;-55
2023/09/06 00:24:40;;;;;;;;;;;22.60;46.00;;;;;;1505520;78;749;-55
2023/09/06 00:26:43;;;;;;;;;;;22.60;46.00;;;;;;1517369;77;1942;-50
2023/09/06 00:28:45;;;;;;;;;;;22.60;46.00;;;;;;1509564;77;1428;-51
2023/09/06 00:30:47;;;;;;;;;;;22.60;45.90;;;;;;1507910;77;1256;-54
2023/09/06 00:32:56;;;;;;;;;;;22.60;45.80;;;;;;1511029;78;707;-54
2023/09/06 00:34:57;;;;;;;;;;;22.50;45.90;;;;;;1505579;77;672;-54
2023/09/06 00:37:00;;;;;;;;;;;22.50;45.90;;;;;;1508482;77;728;-53
2023/09/06 00:39:04;;;;;;;;;;;22.60;45.80;;;;;;1512451;78;723;-54
2023/09/06 00:41:05;;;;;;;;;;;22.60;45.90;;;;;;1511685;77;1608;-54
2023/09/06 00:43:08;;;;;;;;;;;22.60;45.90;;;;;;1511728;77;798;-52
2023/09/06 00:45:09;;;;;;;;;;;22.50;45.80;;;;;;1511877;77;646;-52
2023/09/06 00:47:12;;;;;;;;;;;22.50;45.70;;;;;;1517771;77;1949;-54
2023/09/06 00:49:14;;;;;;;;;;;22.60;45.70;;;;;;1500157;77;698;-51
2023/09/06 00:51:16;;;;;;;;;;;22.50;45.70;;;;;;1506241;77;1192;-52
2023/09/06 00:53:18;;;;;;;;;;;22.50;45.70;;;;;;1503873;78;781;-53
2023/09/06 00:55:20;;;;;;;;;;;22.50;45.70;;;;;;1510344;77;1373;-52
2023/09/06 00:57:22;;;;;;;;;;;22.50;45.70;;;;;;1518097;77;703;-53
2023/09/06 00:59:25;;;;;;;;;;;22.50;45.60;;;;;;1506645;77;698;-52
2023/09/06 01:01:28;;;;;;;;;;;22.50;45.60;;;;;;1503057;77;712;-53
2023/09/06 01:03:30;;;;;;;;;;;22.50;45.60;;;;;;1508857;78;781;-53
2023/09/06 01:05:32;;;;;;;;;;;22.50;45.50;;;;;;1512183;78;686;-54
2023/09/06 01:07:38;;;;;;;;;;;22.50;45.50;;;;;;1512478;77;1937;-51
2023/09/06 01:09:37;;;;;;;;;;;22.50;45.50;;;;;;1518384;77;1427;-53
2023/09/06 01:11:40;;;;;;;;;;;22.50;45.50;;;;;;1515860;78;794;-52
2023/09/06 01:13:42;;;;;;;;;;;22.50;45.50;;;;;;1516778;78;685;-55
2023/09/06 01:15:44;;;;;;;;;;;22.50;45.50;;;;;;1509355;78;700;-52
2023/09/06 01:17:46;;;;;;;;;;;22.50;45.50;;;;;;1511330;78;727;-52
2023/09/06 01:19:50;;;;;;;;;;;22.50;45.40;;;;;;1509129;78;1179;-53
2023/09/06 01:22:08;;;;;;;;;;;22.50;45.30;;;;;;1517183;78;1620;-54
2023/09/06 01:24:10;;;;;;;;;;;22.50;45.50;;;;;;1509817;78;1405;-52
2023/09/06 01:26:12;;;;;;;;;;;22.50;45.50;;;;;;1514566;78;606;-55
2023/09/06 01:28:14;;;;;;;;;;;22.50;45.50;;;;;;1514351;78;1944;-53
2023/09/06 01:30:15;;;;;;;;;;;22.40;45.40;;;;;;1514313;78;1191;-53
2023/09/06 01:32:17;;;;;;;;;;;22.40;45.40;;;;;;1513372;78;758;-54
2023/09/06 01:34:19;;;;;;;;;;;22.50;45.50;;;;;;1507812;78;788;-53
2023/09/06 01:36:21;;;;;;;;;;;22.40;45.50;;;;;;1506698;78;630;-53
2023/09/06 01:38:23;;;;;;;;;;;22.50;45.70;;;;;;1514459;77;1312;-53
2023/09/06 01:40:27;;;;;;;;;;;22.50;45.60;;;;;;1512481;78;1127;-51
2023/09/06 01:42:29;;;;;;;;;;;22.50;45.70;;;;;;1514764;77;720;-54
2023/09/06 01:44:31;;;;;;;;;;;22.40;45.50;;;;;;1507600;77;701;-54
2023/09/06 01:46:33;;;;;;;;;;;22.40;45.50;;;;;;1511510;77;804;-51
2023/09/06 01:48:36;;;;;;;;;;;22.40;45.50;;;;;;1512197;77;1945;-51
2023/09/06 01:50:38;;;;;;;;;;;22.50;45.60;;;;;;1517913;78;1198;-52
2023/09/06 01:52:40;;;;;;;;;;;22.40;45.50;;;;;;1513100;77;1457;-50
2023/09/06 01:54:45;;;;;;;;;;;22.40;45.50;;;;;;1511707;77;745;-53
2023/09/06 01:56:45;;;;;;;;;;;22.40;45.50;;;;;;1513664;77;1481;-54
2023/09/06 01:58:47;;;;;;;;;;;22.50;45.70;;;;;;1512252;78;709;-52
2023/09/06 02:00:49;;;;;;;;;;;22.40;45.50;;;;;;1509616;78;1101;-54
2023/09/06 02:02:51;;;;;;;;;;;22.40;45.60;;;;;;1512156;78;642;-54
2023/09/06 02:04:53;;;;;;;;;;;22.40;45.50;;;;;;1514334;78;635;-52
2023/09/06 02:06:55;;;;;;;;;;;22.40;45.50;;;;;;1514131;78;1404;-53
2023/09/06 02:08:57;;;;;;;;;;;22.40;45.50;;;;;;1505868;78;1945;-51
2023/09/06 02:10:59;;;;;;;;;;;22.40;45.50;;;;;;1515301;77;1183;-53
2023/09/06 02:13:01;;;;;;;;;;;22.40;45.50;;;;;;1518046;77;678;-54
2023/09/06 02:15:06;;;;;;;;;;;22.40;45.50;;;;;;1505263;78;702;-55
2023/09/06 02:17:08;;;;;;;;;;;22.40;45.50;;;;;;1508349;77;747;-53
2023/09/06 02:19:10;;;;;;;;;;;22.40;45.50;;;;;;1517769;77;756;-50
2023/09/06 02:21:11;;;;;;;;;;;22.40;45.50;;;;;;1514724;77;1395;-55
2023/09/06 02:23:13;;;;;;;;;;;22.40;45.50;;;;;;1508475;77;708;-53
2023/09/06 02:25:16;;;;;;;;;;;22.40;45.50;;;;;;1514944;77;706;-55
2023/09/06 02:27:18;;;;;;;;;;;22.40;45.40;;;;;;1507699;77;1945;-54
2023/09/06 02:29:20;;;;;;;;;;;22.40;45.50;;;;;;1515954;78;802;-55
2023/09/06 02:31:22;;;;;;;;;;;22.40;45.40;;;;;;1514568;77;1067;-54
2023/09/06 02:33:25;;;;;;;;;;;22.40;45.50;;;;;;1507558;77;626;-54
2023/09/06 02:35:27;;;;;;;;;;;22.40;45.40;;;;;;1509394;77;1412;-54
2023/09/06 02:37:28;;;;;;;;;;;22.30;45.30;;;;;;1513881;77;793;-54
2023/09/06 02:39:30;;;;;;;;;;;22.40;45.40;;;;;;1515574;77;1113;-55
2023/09/06 02:41:32;;;;;;;;;;;22.40;45.30;;;;;;1513250;77;615;-52
2023/09/06 02:43:35;;;;;;;;;;;22.40;45.20;;;;;;1509178;77;719;-52
2023/09/06 02:45:37;;;;;;;;;;;22.40;45.40;;;;;;1505059;78;794;-53
2023/09/06 02:47:39;;;;;;;;;;;22.40;45.30;;;;;;1508889;77;1952;-54
2023/09/06 02:49:47;;;;;;;;;;;22.40;45.30;;;;;;1509390;77;1177;-55
2023/09/06 02:51:51;;;;;;;;;;;22.40;45.10;;;;;;1514853;77;806;-50
2023/09/06 02:53:56;;;;;;;;;;;22.40;45.20;;;;;;1503521;77;1367;-54
2023/09/06 02:55:57;;;;;;;;;;;22.40;45.20;;;;;;1505011;77;1570;-52
2023/09/06 02:57:59;;;;;;;;;;;22.40;45.10;;;;;;1514299;77;723;-53
2023/09/06 03:00:07;;;;;;;;;;;22.30;45.20;;;;;;1514565;77;1172;-53
2023/09/06 03:02:05;;;;;;;;;;;22.40;45.10;;;;;;1513322;77;1548;-52
2023/09/06 03:04:07;;;;;;;;;;;22.30;45.10;;;;;;1496690;78;658;-52
2023/09/06 03:06:17;;;;;;;;;;;22.30;45.70;;;;;;1512683;77;762;-54
2023/09/06 03:08:12;;;;;;;;;;;22.40;46.20;;;;;;1509650;77;1933;-52
2023/09/06 03:10:15;;;;;;;;;;;22.40;46.00;;;;;;1520826;77;1133;-54
2023/09/06 03:12:17;;;;;;;;;;;22.40;45.90;;;;;;1504322;78;729;-51
2023/09/06 03:14:21;;;;;;;;;;;22.40;45.80;;;;;;1513673;78;787;-54
2023/09/06 03:16:23;;;;;;;;;;;22.40;45.50;;;;;;1518650;77;1588;-53
2023/09/06 03:18:24;;;;;;;;;;;22.40;45.50;;;;;;1512633;77;733;-54
2023/09/06 03:20:33;;;;;;;;;;;22.40;45.50;;;;;;1500792;77;1188;-51
2023/09/06 03:22:37;;;;;;;;;;;22.40;45.40;;;;;;1502789;77;668;-51
2023/09/06 03:24:42;;;;;;;;;;;22.40;45.40;;;;;;1520573;77;1629;-52
2023/09/06 03:26:44;;;;;;;;;;;22.40;45.20;;;;;;1515270;77;662;-51
2023/09/06 03:28:47;;;;;;;;;;;22.40;45.20;;;;;;1510451;77;1957;-53
2023/09/06 03:30:49;;;;;;;;;;;22.40;45.20;;;;;;1512789;77;1523;-52
2023/09/06 03:32:51;;;;;;;;;;;22.40;45.10;;;;;;1516170;77;762;-51
2023/09/06 03:34:54;;;;;;;;;;;22.40;45.10;;;;;;1516525;77;685;-51
2023/09/06 03:36:57;;;;;;;;;;;22.40;45.00;;;;;;1502865;77;735;-54
2023/09/06 03:39:00;;;;;;;;;;;22.30;45.00;;;;;;1517617;77;714;-54
2023/09/06 03:41:06;;;;;;;;;;;22.30;45.00;;;;;;1514440;77;1213;-54
2023/09/06 03:43:16;;;;;;;;;;;22.40;44.90;;;;;;1513188;77;1535;-54
2023/09/06 03:45:15;;;;;;;;;;;22.30;44.90;;;;;;1504138;77;1955;-52
2023/09/06 03:47:14;;;;;;;;;;;22.30;44.90;;;;;;1514866;77;1565;-52
2023/09/06 03:49:16;;;;;;;;;;;22.30;44.80;;;;;;1507391;77;1932;-52
2023/09/06 03:51:18;;;;;;;;;;;22.30;44.80;;;;;;1512088;77;1181;-51
2023/09/06 03:53:20;;;;;;;;;;;22.30;44.80;;;;;;1511116;77;792;-52
2023/09/06 03:55:24;;;;;;;;;;;22.30;44.80;;;;;;1508863;77;798;-54
2023/09/06 03:57:26;;;;;;;;;;;22.30;44.80;;;;;;1515952;77;721;-54
2023/09/06 03:59:27;;;;;;;;;;;22.30;44.80;;;;;;1516604;77;1431;-51
2023/09/06 04:01:30;;;;;;;;;;;22.30;44.70;;;;;;1515403;77;742;-52
2023/09/06 04:03:32;;;;;;;;;;;22.30;44.70;;;;;;1515473;78;783;-53
2023/09/06 04:05:34;;;;;;;;;;;22.30;44.60;;;;;;1510180;77;721;-54
2023/09/06 04:07:38;;;;;;;;;;;22.30;44.60;;;;;;1513769;77;694;-53
2023/09/06 04:09:42;;;;;;;;;;;22.30;44.50;;;;;;1512077;77;1933;-50
2023/09/06 04:11:43;;;;;;;;;;;22.30;44.50;;;;;;1513624;77;1534;-53
2023/09/06 04:13:45;;;;;;;;;;;22.30;44.70;;;;;;1514079;77;1328;-54
2023/09/06 04:15:48;;;;;;;;;;;22.30;44.50;;;;;;1514295;77;697;-54
2023/09/06 04:17:58;;;;;;;;;;;22.30;44.50;;;;;;1505590;77;714;-53
2023/09/06 04:20:00;;;;;;;;;;;22.30;44.50;;;;;;1514306;77;1162;-53
2023/09/06 04:22:02;;;;;;;;;;;22.20;44.30;;;;;;1503942;77;859;-50
2023/09/06 04:24:07;;;;;;;;;;;22.30;44.40;;;;;;1500634;77;731;-54
2023/09/06 04:26:08;;;;;;;;;;;22.30;44.50;;;;;;1508459;77;1574;-54
2023/09/06 04:28:10;;;;;;;;;;;22.30;44.50;;;;;;1509271;77;1941;-54
2023/09/06 04:30:15;;;;;;;;;;;22.30;44.70;;;;;;1511716;77;1133;-53
2023/09/06 04:32:17;;;;;;;;;;;22.30;44.60;;;;;;1509325;77;1594;-54
2023/09/06 04:34:19;;;;;;;;;;;22.30;44.70;;;;;;1513799;77;702;-54
2023/09/06 04:36:21;;;;;;;;;;;22.30;44.80;;;;;;1500555;78;706;-51
2023/09/06 04:38:27;;;;;;;;;;;22.30;44.80;;;;;;1518819;77;672;-52
2023/09/06 04:40:26;;;;;;;;;;;22.30;45.00;;;;;;1509255;77;1479;-53
2023/09/06 04:42:28;;;;;;;;;;;22.30;45.10;;;;;;1515285;77;698;-53
2023/09/06 04:44:30;;;;;;;;;;;22.20;44.90;;;;;;1509100;77;648;-53
2023/09/06 04:46:32;;;;;;;;;;;22.20;45.00;;;;;;1515669;77;672;-54
2023/09/06 04:48:33;;;;;;;;;;;22.20;44.80;;;;;;1508749;77;1938;-53
2023/09/06 04:50:39;;;;;;;;;;;22.30;45.00;;;;;;1510140;77;1153;-54
2023/09/06 04:52:44;;;;;;;;;;;22.20;45.50;;;;;;1509180;77;785;-53
2023/09/06 04:54:46;;;;;;;;;;;22.20;45.10;;;;;;1511332;77;1318;-52
2023/09/06 04:56:48;;;;;;;;;;;22.30;45.20;;;;;;1512123;77;708;-54
2023/09/06 04:58:50;;;;;;;;;;;22.30;45.30;;;;;;1509781;78;754;-54
2023/09/06 05:00:52;;;;;;;;;;;22.30;45.90;;;;;;1509255;77;1166;-52
2023/09/06 05:02:54;;;;;;;;;;;22.30;45.90;;;;;;1512364;77;723;-55
2023/09/06 05:04:56;;;;;;;;;;;22.30;46.30;;;;;;1500099;77;678;-51
2023/09/06 05:06:57;;;;;;;;;;;22.30;46.50;;;;;;1506575;77;697;-52
2023/09/06 05:08:59;;;;;;;;;;;22.30;46.50;;;;;;1499975;77;1960;-55
2023/09/06 05:11:03;;;;;;;;;;;22.40;46.70;;;;;;1506793;77;1152;-54
2023/09/06 05:13:11;;;;;;;;;;;22.40;46.70;;;;;;1505564;78;760;-55
2023/09/06 05:15:13;;;;;;;;;;;22.40;46.70;;;;;;1500701;78;676;-53
2023/09/06 05:17:15;;;;;;;;;;;22.40;46.80;;;;;;1514000;78;726;-53
2023/09/06 05:19:21;;;;;;;;;;;22.50;46.90;;;;;;1517260;78;680;-54
2023/09/06 05:21:21;;;;;;;;;;;22.40;46.70;;;;;;1507597;77;1581;-53
2023/09/06 05:23:23;;;;;;;;;;;22.50;46.90;;;;;;1508484;77;1432;-52
2023/09/06 05:25:25;;;;;;;;;;;22.60;46.80;;;;;;1517508;78;716;-52
2023/09/06 05:27:27;;;;;;;;;;;22.50;46.60;;;;;;1509847;77;608;-52
2023/09/06 05:29:32;;;;;;;;;;;22.60;46.60;;;;;;1514464;78;1927;-51
2023/09/06 05:31:33;;;;;;;;;;;22.60;46.50;;;;;;1507230;78;1096;-55
2023/09/06 05:33:35;;;;;;;;;;;22.60;46.50;;;;;;1511854;78;720;-55
2023/09/06 05:35:37;;;;;;;;;;;22.70;46.50;;;;;;1514458;78;689;-54
2023/09/06 05:37:39;;;;;;;;;;;22.70;46.50;;;;;;1509427;78;1414;-54
2023/09/06 05:39:41;;;;;;;;;;;22.80;46.40;;;;;;1514014;78;1234;-53
2023/09/06 05:41:42;;;;;;;;;;;22.70;46.50;;;;;;1512667;77;799;-51
2023/09/06 05:43:46;;;;;;;;;;;22.80;46.50;;;;;;1504034;78;670;-54
2023/09/06 05:45:47;;;;;;;;;;;22.70;46.50;;;;;;1515971;78;701;-54
2023/09/06 05:47:49;;;;;;;;;;;22.80;46.40;;;;;;1510625;78;783;-53
2023/09/06 05:49:55;;;;;;;;;;;22.70;46.50;;;;;;1514869;77;1947;-55
2023/09/06 05:51:55;;;;;;;;;;;22.80;46.40;;;;;;1516939;77;1587;-53
2023/09/06 05:53:58;;;;;;;;;;;22.80;46.40;;;;;;1508691;78;688;-52
2023/09/06 05:56:00;;;;;;;;;;;23.00;46.40;;;;;;1511020;78;696;-54
2023/09/06 05:58:02;;;;;;;;;;;22.90;46.40;;;;;;1504689;78;762;-55
2023/09/06 06:00:12;;;;;;;;;;;23.00;46.30;;;;;;1512243;77;1123;-55
2023/09/06 06:02:08;;;;;;;;;;;23.00;46.20;;;;;;1515028;78;1442;-53
2023/09/06 06:04:11;;;;;;;;;;;23.00;46.00;;;;;;1507893;78;664;-54
2023/09/06 06:06:16;;;;;;;;;;;23.10;46.10;;;;;;1509410;77;1475;-54
2023/09/06 06:08:16;;;;;;;;;;;23.10;46.00;;;;;;1512478;78;1670;-52
2023/09/06 06:10:18;;;;;;;;;;;23.10;46.00;;;;;;1514240;78;1953;-52
2023/09/06 06:12:22;;;;;;;;;;;23.10;45.90;;;;;;1505991;78;667;-53
2023/09/06 06:14:27;;;;;;;;;;;23.10;46.00;;;;;;1514135;78;1516;-54
2023/09/06 06:16:27;;;;;;;;;;;23.10;46.10;;;;;;1502034;78;1597;-52
2023/09/06 06:18:29;;;;;;;;;;;23.00;46.10;;;;;;1512851;78;1308;-52
2023/09/06 06:20:31;;;;;;;;;;;23.00;46.20;;;;;;1513780;78;1182;-52
2023/09/06 06:22:37;;;;;;;;;;;23.00;46.20;;;;;;1512958;78;769;-52
2023/09/06 06:24:37;;;;;;;;;;;23.00;46.20;;;;;;1506461;78;1548;-52
2023/09/06 06:26:39;;;;;;;;;;;23.00;46.30;;;;;;1510534;78;718;-55
2023/09/06 06:28:41;;;;;;;;;;;23.00;46.30;;;;;;1510803;78;726;-55
2023/09/06 06:30:43;;;;;;;;;;;23.00;46.40;;;;;;1512405;78;1960;-55
2023/09/06 06:32:44;;;;;;;;;;;23.00;46.40;;;;;;1513536;78;1416;-53
2023/09/06 06:34:49;;;;;;;;;;;23.00;46.40;;;;;;1518219;78;717;-55
2023/09/06 06:36:50;;;;;;;;;;;23.00;46.50;;;;;;1511967;77;1590;-52
2023/09/06 06:38:52;;;;;;;;;;;23.00;46.40;;;;;;1514129;78;728;-52
2023/09/06 06:40:54;;;;;;;;;;;23.00;46.40;;;;;;1515379;78;1250;-55
2023/09/06 06:42:56;;;;;;;;;;;23.00;46.50;;;;;;1514669;78;653;-55
2023/09/06 06:44:58;;;;;;;;;;;23.00;46.50;;;;;;1508878;78;686;-55
2023/09/06 06:47:00;;;;;;;;;;;23.20;46.30;;;;;;1518442;78;1430;-54
2023/09/06 06:49:04;;;;;;;;;;;24.60;45.20;;;;;;1516003;78;1918;-55
2023/09/06 06:51:06;;;;;;;;;;;27.00;41.00;;;;;;1513911;78;1177;-54
2023/09/06 06:53:08;;;;;;;;;;;29.70;35.00;;;;;;1513979;78;692;-54
2023/09/06 06:55:10;;;;;;;;;;;31.90;30.50;;;;;;1519144;78;705;-53
2023/09/06 06:57:12;;;;;;;;;;;33.50;27.80;;;;;;1503910;78;764;-54
2023/09/06 06:59:14;;;;;;;;;;;34.40;25.60;;;;;;1506929;78;775;-55
2023/09/06 07:01:16;;;;;;;;;;;35.10;24.40;;;;;;1509469;78;1454;-54
2023/09/06 07:03:18;;;;;;;;;;;35.40;23.10;;;;;;1518330;78;693;-53
2023/09/06 07:05:20;;;;;;;;;;;35.80;22.10;;;;;;1514210;78;745;-54
2023/09/06 07:07:22;;;;;;;;;;;34.60;23.10;;;;;;1510685;78;740;-51
2023/09/06 07:09:24;;;;;;;;;;;31.90;25.80;;;;;;1515048;78;1943;-52
2023/09/06 07:11:26;;;;;;;;;;;29.80;29.00;;;;;;1514540;78;715;-54
2023/09/06 07:13:28;;;;;;;;;;;28.40;31.80;;;;;;1509790;78;717;-53
2023/09/06 07:15:30;;;;;;;;;;;27.30;33.90;;;;;;1514645;78;1412;-52
2023/09/06 07:17:32;;;;;;;;;;;26.70;35.20;;;;;;1511093;78;752;-52
2023/09/06 07:19:34;;;;;;;;;;;26.10;36.80;;;;;;1516194;77;1175;-53
2023/09/06 07:21:35;;;;;;;;;;;25.80;37.30;;;;;;1514463;78;685;-55
2023/09/06 07:23:37;;;;;;;;;;;25.60;38.20;;;;;;1500729;78;700;-53
2023/09/06 07:25:39;;;;;;;;;;;25.40;38.90;;;;;;1507816;78;731;-55
2023/09/06 07:27:41;;;;;;;;;;;25.30;39.50;;;;;;1515507;78;685;-53
2023/09/06 07:29:43;;;;;;;;;;;25.10;40.00;;;;;;1513846;77;1944;-55
2023/09/06 07:31:45;;;;;;;;;;;25.00;40.40;;;;;;1512101;78;752;-55
2023/09/06 07:33:47;;;;;;;;;;;24.90;40.80;;;;;;1506910;78;714;-55
2023/09/06 07:35:49;;;;;;;;;;;24.90;41.10;;;;;;1515781;78;677;-55
2023/09/06 07:37:51;;;;;;;;;;;24.80;41.30;;;;;;1511733;78;703;-54
2023/09/06 07:39:54;;;;;;;;;;;24.80;41.50;;;;;;1516806;78;1234;-54
2023/09/06 07:41:56;;;;;;;;;;;24.70;41.70;;;;;;1504071;78;652;-55
2023/09/06 07:43:58;;;;;;;;;;;24.80;41.80;;;;;;1512181;77;1461;-54
2023/09/06 07:45:59;;;;;;;;;;;24.70;41.90;;;;;;1494038;78;696;-53
2023/09/06 07:48:03;;;;;;;;;;;24.80;42.00;;;;;;1512778;78;697;-54
2023/09/06 07:50:05;;;;;;;;;;;24.70;42.00;;;;;;1504640;77;1925;-55
2023/09/06 07:52:08;;;;;;;;;;;24.70;42.10;;;;;;1518178;78;690;-55
2023/09/06 07:54:10;;;;;;;;;;;24.70;42.20;;;;;;1516576;78;689;-54
2023/09/06 07:56:12;;;;;;;;;;;24.70;42.20;;;;;;1512491;78;711;-53
2023/09/06 07:58:14;;;;;;;;;;;24.80;42.30;;;;;;1510323;78;1450;-51
2023/09/06 08:00:16;;;;;;;;;;;24.70;42.40;;;;;;1517705;77;1165;-53
2023/09/06 08:02:18;;;;;;;;;;;24.60;42.40;;;;;;1518089;78;690;-53
2023/09/06 08:04:21;;;;;;;;;;;24.60;42.50;;;;;;1521874;77;736;-52
2023/09/06 08:06:23;;;;;;;;;;;24.60;42.60;;;;;;1496260;78;712;-54
2023/09/06 08:08:25;;;;;;;;;;;24.60;42.70;;;;;;1503537;77;648;-54
2023/09/06 08:10:27;;;;;;;;;;;24.60;42.80;;;;;;1512583;78;1945;-54
2023/09/06 08:12:28;;;;;;;;;;;24.50;42.90;;;;;;1523298;77;1470;-52
2023/09/06 08:14:30;;;;;;;;;;;24.50;43.00;;;;;;1516170;77;727;-55
2023/09/06 08:16:32;;;;;;;;;;;24.50;43.10;;;;;;1514529;78;601;-51
2023/09/06 08:18:34;;;;;;;;;;;24.50;43.10;;;;;;1512376;78;743;-55
2023/09/06 08:20:36;;;;;;;;;;;24.50;43.10;;;;;;1509274;78;1174;-53
2023/09/06 08:22:40;;;;;;;;;;;24.50;43.20;;;;;;1514215;78;694;-52
2023/09/06 08:24:41;;;;;;;;;;;24.50;43.40;;;;;;1514777;78;1443;-53
2023/09/06 08:26:43;;;;;;;;;;;24.50;43.40;;;;;;1517449;78;1416;-55
2023/09/06 08:28:45;;;;;;;;;;;24.50;43.40;;;;;;1513450;78;804;-54
2023/09/06 08:30:47;;;;;;;;;;;24.50;43.40;;;;;;1505189;77;1944;-55
2023/09/06 08:32:50;;;;;;;;;;;24.50;43.50;;;;;;1504652;78;684;-55
2023/09/06 08:34:52;;;;;;;;;;;24.40;43.40;;;;;;1515407;78;712;-53
2023/09/06 08:36:56;;;;;;;;;;;24.50;43.50;;;;;;1513429;78;775;-53
2023/09/06 08:38:58;;;;;;;;;;;24.60;43.60;;;;;;1500445;78;793;-55
2023/09/06 08:41:00;;;;;;;;;;;24.40;43.50;;;;;;1512225;78;1559;-54
2023/09/06 08:43:03;;;;;;;;;;;24.50;43.60;;;;;;1518988;78;687;-54
2023/09/06 08:45:07;;;;;;;;;;;24.60;43.60;;;;;;1512658;78;652;-52
2023/09/06 08:47:09;;;;;;;;;;;24.40;43.60;;;;;;1514543;78;665;-53
2023/09/06 08:49:11;;;;;;;;;;;24.50;43.70;;;;;;1512322;78;728;-53
2023/09/06 08:51:13;;;;;;;;;;;24.50;43.70;;;;;;1513175;78;1958;-54
2023/09/06 08:53:16;;;;;;;;;;;24.50;43.80;;;;;;1516988;77;1328;-55
2023/09/06 08:55:18;;;;;;;;;;;24.50;43.80;;;;;;1515981;77;734;-55
2023/09/06 08:57:20;;;;;;;;;;;24.50;43.90;;;;;;1508681;78;723;-53
2023/09/06 08:59:22;;;;;;;;;;;24.50;43.90;;;;;;1512365;78;715;-54
2023/09/06 09:01:23;;;;;;;;;;;24.40;43.80;;;;;;1509753;78;1169;-55
2023/09/06 09:03:25;;;;;;;;;;;24.50;44.00;;;;;;1514165;78;790;-55
2023/09/06 09:05:27;;;;;;;;;;;24.50;44.00;;;;;;1517759;78;684;-54
2023/09/06 09:07:30;;;;;;;;;;;24.40;44.00;;;;;;1512476;78;1350;-53
2023/09/06 09:09:32;;;;;;;;;;;24.40;44.00;;;;;;1513717;78;1157;-54
2023/09/06 09:11:34;;;;;;;;;;;24.40;44.10;;;;;;1503940;78;1947;-55
2023/09/06 09:13:36;;;;;;;;;;;24.40;44.10;;;;;;1511205;78;755;-54
2023/09/06 09:15:38;;;;;;;;;;;24.40;44.10;;;;;;1513963;78;727;-53
2023/09/06 09:17:40;;;;;;;;;;;24.40;44.20;;;;;;1513585;77;713;-54
2023/09/06 09:19:42;;;;;;;;;;;24.40;44.20;;;;;;1503192;78;1150;-53
2023/09/06 09:21:44;;;;;;;;;;;24.40;44.30;;;;;;1511390;78;1439;-52
2023/09/06 09:23:49;;;;;;;;;;;24.40;44.30;;;;;;1517144;77;652;-54
2023/09/06 09:25:51;;;;;;;;;;;24.40;44.40;;;;;;1505191;78;1047;-54
2023/09/06 09:27:56;;;;;;;;;;;24.40;44.40;;;;;;1506014;78;691;-52
2023/09/06 09:29:56;;;;;;;;;;;24.40;44.40;;;;;;1504343;77;1938;-53
2023/09/06 09:32:06;;;;;;;;;;;24.30;44.50;;;;;;1513529;78;630;-53
2023/09/06 09:34:05;;;;;;;;;;;24.40;44.50;;;;;;1516609;78;762;-53
2023/09/06 09:36:07;;;;;;;;;;;24.40;44.60;;;;;;1516597;77;1511;-54
2023/09/06 09:38:11;;;;;;;;;;;24.40;44.60;;;;;;1507774;78;669;-53
2023/09/06 09:40:20;;;;;;;;;;;24.30;44.60;;;;;;1504679;78;1286;-52
2023/09/06 09:42:22;;;;;;;;;;;24.30;44.70;;;;;;1513954;78;723;-53
2023/09/06 09:44:24;;;;;;;;;;;24.30;44.70;;;;;;1515233;78;657;-52
2023/09/06 09:46:30;;;;;;;;;;;24.30;44.80;;;;;;1521246;77;676;-52
2023/09/06 09:48:32;;;;;;;;;;;24.30;44.90;;;;;;1504207;78;675;-53
2023/09/06 09:50:34;;;;;;;;;;;24.30;44.80;;;;;;1493738;78;1951;-53
2023/09/06 09:52:36;;;;;;;;;;;24.30;44.90;;;;;;1511564;78;774;-52
2023/09/06 09:54:42;;;;;;;;;;;24.30;45.00;;;;;;1506943;78;669;-55
2023/09/06 09:56:47;;;;;;;;;;;24.20;44.90;;;;;;1508247;78;715;-55
2023/09/06 09:58:49;;;;;;;;;;;24.20;45.00;;;;;;1503345;78;625;-54
2023/09/06 10:00:51;;;;;;;;;;;24.20;45.10;;;;;;1512028;77;1144;-52
2023/09/06 10:02:53;;;;;;;;;;;24.20;45.10;;;;;;1511657;77;724;-54
2023/09/06 10:04:55;;;;;;;;;;;24.20;45.10;;;;;;1516828;78;1431;-51
2023/09/06 10:06:57;;;;;;;;;;;24.30;45.20;;;;;;1508566;78;678;-52
2023/09/06 10:09:00;;;;;;;;;;;24.20;45.20;;;;;;1511716;78;628;-53
2023/09/06 10:11:02;;;;;;;;;;;24.20;45.20;;;;;;1513609;77;1927;-55
2023/09/06 10:13:07;;;;;;;;;;;24.20;45.20;;;;;;1511806;78;729;-55
2023/09/06 10:15:08;;;;;;;;;;;24.20;45.20;;;;;;1513265;78;1575;-55
2023/09/06 10:17:11;;;;;;;;;;;24.20;45.30;;;;;;1507122;78;768;-52
2023/09/06 10:19:13;;;;;;;;;;;24.20;45.30;;;;;;1508635;77;1320;-53
2023/09/06 10:21:14;;;;;;;;;;;24.20;45.40;;;;;;1512853;77;1150;-55
2023/09/06 10:23:17;;;;;;;;;;;24.20;45.40;;;;;;1509973;78;714;-53
2023/09/06 10:25:19;;;;;;;;;;;24.20;45.50;;;;;;1515683;78;610;-55
2023/09/06 10:27:21;;;;;;;;;;;24.20;45.50;;;;;;1511587;78;731;-55
2023/09/06 10:29:24;;;;;;;;;;;24.10;45.60;;;;;;1475567;80;632;-54
2023/09/06 10:31:35;;;;;;;;;;;24.10;45.60;;;;;;1513177;77;1940;-55
2023/09/06 10:33:42;;;;;;;;;;;24.20;45.60;;;;;;1496985;78;754;-54
2023/09/06 10:35:42;;;;;;;;;;;24.20;45.60;;;;;;1503702;78;1566;-54
2023/09/06 10:37:48;;;;;;;;;;;24.10;45.70;;;;;;1502680;78;735;-55
2023/09/06 10:39:52;;;;;;;;;;;24.10;45.80;;;;;;1493055;78;1784;-55
2023/09/06 10:42:14;;;;;;;;;;;24.10;45.80;;;;;;1504940;78;943;-54
2023/09/06 10:44:13;;;;;;;;;;;24.00;45.70;;;;;;1503685;78;1230;-55
2023/09/06 10:46:23;;;;;;;;;;;24.10;45.90;;;;;;1492333;78;1438;-52
2023/09/06 10:48:23;;;;;;;;;;;24.00;45.70;;;;;;1502471;78;1603;-55
2023/09/06 10:50:25;;;;;;;;;;;24.00;45.80;;;;;;1493586;78;1947;-55
2023/09/06 10:52:40;;;;;;;;;;;24.00;45.90;;;;;;1486814;78;759;-53
2023/09/06 10:54:42;;;;;;;;;;;24.00;46.00;;;;;;1518110;77;673;-55
2023/09/06 10:56:45;;;;;;;;;;;24.00;46.00;;;;;;1503258;78;700;-52
2023/09/06 10:58:47;;;;;;;;;;;24.00;46.00;;;;;;1503657;78;1077;-55
2023/09/06 11:00:51;;;;;;;;;;;23.90;46.10;;;;;;1509785;77;1531;-54
2023/09/06 11:03:06;;;;;;;;;;;23.90;46.20;;;;;;1511156;78;1101;-52
2023/09/06 11:05:14;;;;;;;;;;;23.90;46.20;;;;;;1517406;78;731;-55
2023/09/06 11:07:16;;;;;;;;;;;24.00;46.30;;;;;;1510747;77;1085;-53
2023/09/06 11:09:18;;;;;;;;;;;23.90;46.30;;;;;;1511170;78;772;-54
2023/09/06 11:11:20;;;;;;;;;;;23.90;46.40;;;;;;1507024;78;1937;-53
2023/09/06 11:13:26;;;;;;;;;;;23.90;46.40;;;;;;1516918;78;728;-51
2023/09/06 11:15:27;;;;;;;;;;;23.90;46.40;;;;;;1508337;78;1456;-52
2023/09/06 11:17:29;;;;;;;;;;;23.90;46.50;;;;;;1512572;78;753;-55
2023/09/06 11:19:31;;;;;;;;;;;23.90;46.50;;;;;;1507466;77;1190;-55
2023/09/06 11:21:33;;;;;;;;;;;23.90;46.50;;;;;;1513639;78;681;-54
2023/09/06 11:23:47;;;;;;;;;;;23.90;46.60;;;;;;1519671;78;708;-53
2023/09/06 11:25:51;;;;;;;;;;;23.90;46.60;;;;;;1517890;78;664;-55
2023/09/06 11:27:59;;;;;;;;;;;23.90;46.70;;;;;;1518535;76;1443;-55
2023/09/06 11:29:57;;;;;;;;;;;23.90;46.70;;;;;;1521337;77;1524;-52
2023/09/06 11:32:09;;;;;;;;;;;23.90;46.70;;;;;;1525276;78;1937;-54
2023/09/06 11:34:13;;;;;;;;;;;23.90;46.70;;;;;;1515565;78;629;-54
2023/09/06 11:36:15;;;;;;;;;;;23.80;46.70;;;;;;1505592;78;1465;-52
2023/09/06 11:38:20;;;;;;;;;;;23.90;46.80;;;;;;1520885;78;771;-52
2023/09/06 11:40:20;;;;;;;;;;;23.90;46.80;;;;;;1520533;77;1587;-54
2023/09/06 11:42:24;;;;;;;;;;;23.90;46.80;;;;;;1517956;77;1420;-54
2023/09/06 11:44:26;;;;;;;;;;;23.80;46.80;;;;;;1526699;76;2152;-53
2023/09/06 11:46:31;;;;;;;;;;;23.80;46.80;;;;;;1507535;78;780;-53
2023/09/06 11:48:34;;;;;;;;;;;23.80;46.90;;;;;;1516128;78;676;-53
2023/09/06 11:50:38;;;;;;;;;;;23.80;47.00;;;;;;1511034;78;1231;-55
2023/09/06 11:52:45;;;;;;;;;;;23.80;46.90;;;;;;1522142;76;1952;-54
2023/09/06 11:54:50;;;;;;;;;;;23.80;47.10;;;;;;1506245;78;1564;-53
2023/09/06 11:56:51;;;;;;;;;;;23.80;47.10;;;;;;1511325;78;1553;-54
2023/09/06 11:58:54;;;;;;;;;;;23.70;47.10;;;;;;1519833;78;690;-53
2023/09/06 12:01:00;;;;;;;;;;;23.80;47.10;;;;;;1514533;77;1201;-55
2023/09/06 12:03:07;;;;;;;;;;;23.80;47.20;;;;;;1518221;78;1640;-55
2023/09/06 12:05:11;;;;;;;;;;;23.80;47.20;;;;;;1519813;78;1576;-52
2023/09/06 12:07:09;;;;;;;;;;;23.70;47.20;;;;;;1479669;79;1591;-55
2023/09/06 12:09:18;;;;;;;;;;;23.80;47.30;;;;;;1523673;78;679;-53
2023/09/06 12:11:20;;;;;;;;;;;23.80;47.30;;;;;;1520457;77;1948;-53